sensor_id;sensor_type;location;lat;lon;timestamp;P1;durP1;ratioP1;P2;durP2;ratioP2
11447;SDS011;43755;49.736;8.734;2023-08-12T00:01:47;4.93;;;4.40;;
11447;SDS011;43755;49.736;8.734;2023-08-12T00:03:48;4.57;;;4.10;;
11447;SDS011;43755;49.736;8.734;2023-08-12T00:05:50;3.60;;;3.30;;
11447;SDS011;43755;49.736;8.734;2023-08-12T00:07:52;5.07;;;3.37;;
11447;SDS011;43755;49.736;8.734;2023-08-12T00:09:54;3.53;;;3.23;;
11447;SDS011;43755;49.736;8.734;2023-08-12T00:11:56;5.20;;;3.10;;
11447;SDS011;43755;49.736;8.734;2023-08-12T00:13:58;3.83;;;3.40;;
11447;SDS011;43755;49.736;8.734;2023-08-12T00:15:59;4.57;;;3.67;;
11447;SDS011;43755;49.736;8.734;2023-08-12T00:18:01;3.50;;;2.87;;
11447;SDS011;43755;49.736;8.734;2023-08-12T00:20:04;3.87;;;3.20;;
11447;SDS011;43755;49.736;8.734;2023-08-12T00:22:07;6.07;;;3.17;;
11447;SDS011;43755;49.736;8.734;2023-08-12T00:24:08;4.17;;;3.03;;
11447;SDS011;43755;49.736;8.734;2023-08-12T00:26:11;3.47;;;3.17;;
11447;SDS011;43755;49.736;8.734;2023-08-12T00:28:12;5.83;;;3.20;;
11447;SDS011;43755;49.736;8.734;2023-08-12T00:30:14;5.20;;;3.70;;
11447;SDS011;43755;49.736;8.734;2023-08-12T00:32:16;4.27;;;3.87;;
11447;SDS011;43755;49.736;8.734;2023-08-12T00:34:16;4.23;;;3.53;;
11447;SDS011;43755;49.736;8.734;2023-08-12T00:36:18;6.47;;;4.40;;
11447;SDS011;43755;49.736;8.734;2023-08-12T00:38:19;4.23;;;3.83;;
11447;SDS011;43755;49.736;8.734;2023-08-12T00:40:21;6.30;;;3.70;;
11447;SDS011;43755;49.736;8.734;2023-08-12T00:42:23;4.57;;;4.00;;
11447;SDS011;43755;49.736;8.734;2023-08-12T00:44:25;4.43;;;3.93;;
11447;SDS011;43755;49.736;8.734;2023-08-12T00:46:26;5.27;;;4.77;;
11447;SDS011;43755;49.736;8.734;2023-08-12T00:48:28;4.57;;;4.17;;
11447;SDS011;43755;49.736;8.734;2023-08-12T00:50:29;6.10;;;4.60;;
11447;SDS011;43755;49.736;8.734;2023-08-12T00:52:31;4.83;;;4.43;;
11447;SDS011;43755;49.736;8.734;2023-08-12T00:54:33;6.40;;;5.00;;
11447;SDS011;43755;49.736;8.734;2023-08-12T00:56:34;5.20;;;4.70;;
11447;SDS011;43755;49.736;8.734;2023-08-12T00:58:38;5.57;;;4.13;;
11447;SDS011;43755;49.736;8.734;2023-08-12T01:00:41;4.80;;;4.00;;
11447;SDS011;43755;49.736;8.734;2023-08-12T01:02:44;5.03;;;3.87;;
11447;SDS011;43755;49.736;8.734;2023-08-12T01:04:48;5.10;;;3.90;;
11447;SDS011;43755;49.736;8.734;2023-08-12T01:06:49;4.23;;;3.83;;
11447;SDS011;43755;49.736;8.734;2023-08-12T01:08:51;4.93;;;3.70;;
11447;SDS011;43755;49.736;8.734;2023-08-12T01:10:54;5.13;;;3.57;;
11447;SDS011;43755;49.736;8.734;2023-08-12T01:13:03;4.63;;;4.00;;
11447;SDS011;43755;49.736;8.734;2023-08-12T01:15:13;6.00;;;3.80;;
11447;SDS011;43755;49.736;8.734;2023-08-12T01:17:20;3.80;;;3.50;;
11447;SDS011;43755;49.736;8.734;2023-08-12T01:19:34;3.50;;;3.30;;
11447;SDS011;43755;49.736;8.734;2023-08-12T01:21:39;4.30;;;3.33;;
11447;SDS011;43755;49.736;8.734;2023-08-12T01:23:45;3.53;;;3.23;;
11447;SDS011;43755;49.736;8.734;2023-08-12T01:25:47;3.97;;;3.43;;
11447;SDS011;43755;49.736;8.734;2023-08-12T01:27:49;3.00;;;2.70;;
11447;SDS011;43755;49.736;8.734;2023-08-12T01:29:51;4.07;;;3.23;;
11447;SDS011;43755;49.736;8.734;2023-08-12T01:31:54;6.20;;;3.50;;
11447;SDS011;43755;49.736;8.734;2023-08-12T01:34:01;3.40;;;3.20;;
11447;SDS011;43755;49.736;8.734;2023-08-12T01:36:09;3.60;;;3.30;;
11447;SDS011;43755;49.736;8.734;2023-08-12T01:38:14;4.60;;;4.30;;
11447;SDS011;43755;49.736;8.734;2023-08-12T01:40:18;4.87;;;4.13;;
11447;SDS011;43755;49.736;8.734;2023-08-12T01:42:20;4.90;;;4.50;;
11447;SDS011;43755;49.736;8.734;2023-08-12T01:44:23;4.37;;;3.97;;
11447;SDS011;43755;49.736;8.734;2023-08-12T01:46:24;7.13;;;4.30;;
11447;SDS011;43755;49.736;8.734;2023-08-12T01:48:26;3.70;;;3.50;;
11447;SDS011;43755;49.736;8.734;2023-08-12T01:50:27;3.80;;;3.50;;
11447;SDS011;43755;49.736;8.734;2023-08-12T01:52:29;3.70;;;3.40;;
11447;SDS011;43755;49.736;8.734;2023-08-12T01:54:30;3.93;;;3.50;;
11447;SDS011;43755;49.736;8.734;2023-08-12T01:56:34;4.70;;;3.60;;
11447;SDS011;43755;49.736;8.734;2023-08-12T01:58:36;4.27;;;3.70;;
11447;SDS011;43755;49.736;8.734;2023-08-12T02:00:37;3.80;;;3.50;;
11447;SDS011;43755;49.736;8.734;2023-08-12T02:02:39;3.70;;;3.40;;
11447;SDS011;43755;49.736;8.734;2023-08-12T02:04:40;3.93;;;3.60;;
11447;SDS011;43755;49.736;8.734;2023-08-12T02:06:43;4.57;;;3.40;;
11447;SDS011;43755;49.736;8.734;2023-08-12T02:08:43;4.37;;;3.60;;
11447;SDS011;43755;49.736;8.734;2023-08-12T02:10:44;3.47;;;3.20;;
11447;SDS011;43755;49.736;8.734;2023-08-12T02:12:47;3.90;;;3.30;;
11447;SDS011;43755;49.736;8.734;2023-08-12T02:14:48;3.67;;;3.47;;
11447;SDS011;43755;49.736;8.734;2023-08-12T02:16:49;3.93;;;3.50;;
11447;SDS011;43755;49.736;8.734;2023-08-12T02:18:50;4.70;;;3.43;;
11447;SDS011;43755;49.736;8.734;2023-08-12T02:20:52;3.57;;;3.10;;
11447;SDS011;43755;49.736;8.734;2023-08-12T02:22:53;3.50;;;3.20;;
11447;SDS011;43755;49.736;8.734;2023-08-12T02:24:54;4.37;;;3.50;;
11447;SDS011;43755;49.736;8.734;2023-08-12T02:26:55;3.73;;;3.30;;
11447;SDS011;43755;49.736;8.734;2023-08-12T02:28:58;5.77;;;3.60;;
11447;SDS011;43755;49.736;8.734;2023-08-12T02:30:59;3.83;;;3.50;;
11447;SDS011;43755;49.736;8.734;2023-08-12T02:33:01;3.57;;;3.27;;
11447;SDS011;43755;49.736;8.734;2023-08-12T02:35:02;3.97;;;3.50;;
11447;SDS011;43755;49.736;8.734;2023-08-12T02:37:04;3.87;;;3.20;;
11447;SDS011;43755;49.736;8.734;2023-08-12T02:39:05;3.57;;;3.33;;
11447;SDS011;43755;49.736;8.734;2023-08-12T02:41:07;3.33;;;3.03;;
11447;SDS011;43755;49.736;8.734;2023-08-12T02:43:08;3.30;;;3.10;;
11447;SDS011;43755;49.736;8.734;2023-08-12T02:45:13;4.00;;;3.30;;
11447;SDS011;43755;49.736;8.734;2023-08-12T02:47:14;3.00;;;2.80;;
11447;SDS011;43755;49.736;8.734;2023-08-12T02:49:15;4.60;;;3.40;;
11447;SDS011;43755;49.736;8.734;2023-08-12T02:51:16;3.40;;;3.20;;
11447;SDS011;43755;49.736;8.734;2023-08-12T02:53:17;3.77;;;3.00;;
11447;SDS011;43755;49.736;8.734;2023-08-12T02:55:18;5.37;;;3.40;;
11447;SDS011;43755;49.736;8.734;2023-08-12T02:57:19;3.63;;;3.40;;
11447;SDS011;43755;49.736;8.734;2023-08-12T02:59:21;2.93;;;2.73;;
11447;SDS011;43755;49.736;8.734;2023-08-12T03:01:22;3.50;;;3.20;;
11447;SDS011;43755;49.736;8.734;2023-08-12T03:03:24;3.57;;;3.37;;
11447;SDS011;43755;49.736;8.734;2023-08-12T03:05:25;3.03;;;2.83;;
11447;SDS011;43755;49.736;8.734;2023-08-12T03:07:26;4.23;;;3.63;;
11447;SDS011;43755;49.736;8.734;2023-08-12T03:09:27;3.67;;;3.27;;
11447;SDS011;43755;49.736;8.734;2023-08-12T03:11:28;4.50;;;3.40;;
11447;SDS011;43755;49.736;8.734;2023-08-12T03:13:30;5.43;;;3.60;;
11447;SDS011;43755;49.736;8.734;2023-08-12T03:15:31;4.73;;;3.90;;
11447;SDS011;43755;49.736;8.734;2023-08-12T03:17:34;4.90;;;4.40;;
11447;SDS011;43755;49.736;8.734;2023-08-12T03:19:35;4.73;;;4.40;;
11447;SDS011;43755;49.736;8.734;2023-08-12T03:21:36;5.10;;;4.60;;
11447;SDS011;43755;49.736;8.734;2023-08-12T03:23:38;4.80;;;4.40;;
11447;SDS011;43755;49.736;8.734;2023-08-12T03:25:39;4.20;;;3.90;;
11447;SDS011;43755;49.736;8.734;2023-08-12T03:27:39;4.40;;;4.00;;
11447;SDS011;43755;49.736;8.734;2023-08-12T03:29:41;4.33;;;3.93;;
11447;SDS011;43755;49.736;8.734;2023-08-12T03:31:42;6.60;;;4.23;;
11447;SDS011;43755;49.736;8.734;2023-08-12T03:33:45;4.87;;;4.07;;
11447;SDS011;43755;49.736;8.734;2023-08-12T03:35:45;5.87;;;3.93;;
11447;SDS011;43755;49.736;8.734;2023-08-12T03:37:47;4.47;;;4.10;;
11447;SDS011;43755;49.736;8.734;2023-08-12T03:39:48;5.97;;;4.07;;
11447;SDS011;43755;49.736;8.734;2023-08-12T03:41:50;4.83;;;4.17;;
11447;SDS011;43755;49.736;8.734;2023-08-12T03:43:50;4.70;;;4.27;;
11447;SDS011;43755;49.736;8.734;2023-08-12T03:45:52;4.80;;;4.40;;
11447;SDS011;43755;49.736;8.734;2023-08-12T03:47:53;4.70;;;4.30;;
11447;SDS011;43755;49.736;8.734;2023-08-12T03:49:56;7.87;;;4.73;;
11447;SDS011;43755;49.736;8.734;2023-08-12T03:51:57;5.17;;;4.70;;
11447;SDS011;43755;49.736;8.734;2023-08-12T03:53:59;5.57;;;5.03;;
11447;SDS011;43755;49.736;8.734;2023-08-12T03:55:59;6.00;;;5.23;;
11447;SDS011;43755;49.736;8.734;2023-08-12T03:58:01;5.90;;;5.30;;
11447;SDS011;43755;49.736;8.734;2023-08-12T04:00:02;4.90;;;4.50;;
11447;SDS011;43755;49.736;8.734;2023-08-12T04:02:04;5.37;;;4.87;;
11447;SDS011;43755;49.736;8.734;2023-08-12T04:04:06;7.20;;;5.03;;
11447;SDS011;43755;49.736;8.734;2023-08-12T04:06:08;6.07;;;4.90;;
11447;SDS011;43755;49.736;8.734;2023-08-12T04:08:10;5.23;;;4.83;;
11447;SDS011;43755;49.736;8.734;2023-08-12T04:10:11;4.97;;;4.53;;
11447;SDS011;43755;49.736;8.734;2023-08-12T04:12:12;5.23;;;4.73;;
11447;SDS011;43755;49.736;8.734;2023-08-12T04:14:14;5.63;;;5.03;;
11447;SDS011;43755;49.736;8.734;2023-08-12T04:16:15;4.73;;;4.43;;
11447;SDS011;43755;49.736;8.734;2023-08-12T04:18:17;4.60;;;4.30;;
11447;SDS011;43755;49.736;8.734;2023-08-12T04:20:18;5.23;;;4.80;;
11447;SDS011;43755;49.736;8.734;2023-08-12T04:22:22;4.80;;;4.30;;
11447;SDS011;43755;49.736;8.734;2023-08-12T04:24:23;5.37;;;4.87;;
11447;SDS011;43755;49.736;8.734;2023-08-12T04:26:24;4.93;;;4.33;;
11447;SDS011;43755;49.736;8.734;2023-08-12T04:28:25;5.20;;;4.67;;
11447;SDS011;43755;49.736;8.734;2023-08-12T04:30:26;4.50;;;4.20;;
11447;SDS011;43755;49.736;8.734;2023-08-12T04:32:28;4.70;;;4.40;;
11447;SDS011;43755;49.736;8.734;2023-08-12T04:34:29;4.80;;;4.40;;
11447;SDS011;43755;49.736;8.734;2023-08-12T04:36:31;4.83;;;4.43;;
11447;SDS011;43755;49.736;8.734;2023-08-12T04:38:33;5.10;;;4.60;;
11447;SDS011;43755;49.736;8.734;2023-08-12T04:40:37;5.07;;;4.57;;
11447;SDS011;43755;49.736;8.734;2023-08-12T04:42:39;5.03;;;4.53;;
11447;SDS011;43755;49.736;8.734;2023-08-12T04:44:41;5.03;;;4.53;;
11447;SDS011;43755;49.736;8.734;2023-08-12T04:46:42;5.63;;;5.07;;
11447;SDS011;43755;49.736;8.734;2023-08-12T04:48:43;5.83;;;5.10;;
11447;SDS011;43755;49.736;8.734;2023-08-12T04:50:45;5.23;;;4.80;;
11447;SDS011;43755;49.736;8.734;2023-08-12T04:52:47;5.00;;;4.60;;
11447;SDS011;43755;49.736;8.734;2023-08-12T04:54:52;5.10;;;4.60;;
11447;SDS011;43755;49.736;8.734;2023-08-12T04:56:53;5.77;;;5.13;;
11447;SDS011;43755;49.736;8.734;2023-08-12T04:58:56;5.90;;;4.90;;
11447;SDS011;43755;49.736;8.734;2023-08-12T05:00:57;5.00;;;4.60;;
11447;SDS011;43755;49.736;8.734;2023-08-12T05:02:58;5.27;;;4.77;;
11447;SDS011;43755;49.736;8.734;2023-08-12T05:05:00;4.90;;;4.60;;
11447;SDS011;43755;49.736;8.734;2023-08-12T05:07:01;5.47;;;4.50;;
11447;SDS011;43755;49.736;8.734;2023-08-12T05:09:02;5.03;;;4.53;;
11447;SDS011;43755;49.736;8.734;2023-08-12T05:11:05;4.70;;;4.40;;
11447;SDS011;43755;49.736;8.734;2023-08-12T05:13:06;4.97;;;4.47;;
11447;SDS011;43755;49.736;8.734;2023-08-12T05:15:08;4.90;;;4.50;;
11447;SDS011;43755;49.736;8.734;2023-08-12T05:17:10;4.87;;;4.30;;
11447;SDS011;43755;49.736;8.734;2023-08-12T05:19:11;5.20;;;4.53;;
11447;SDS011;43755;49.736;8.734;2023-08-12T05:21:13;5.17;;;4.67;;
11447;SDS011;43755;49.736;8.734;2023-08-12T05:23:14;5.63;;;4.80;;
11447;SDS011;43755;49.736;8.734;2023-08-12T05:25:15;4.87;;;4.53;;
11447;SDS011;43755;49.736;8.734;2023-08-12T05:27:18;4.97;;;4.17;;
11447;SDS011;43755;49.736;8.734;2023-08-12T05:29:19;4.40;;;3.97;;
11447;SDS011;43755;49.736;8.734;2023-08-12T05:31:21;4.07;;;3.77;;
11447;SDS011;43755;49.736;8.734;2023-08-12T05:33:22;4.40;;;4.10;;
11447;SDS011;43755;49.736;8.734;2023-08-12T05:35:24;5.00;;;4.47;;
11447;SDS011;43755;49.736;8.734;2023-08-12T05:37:26;6.23;;;4.37;;
11447;SDS011;43755;49.736;8.734;2023-08-12T05:39:27;4.87;;;4.30;;
11447;SDS011;43755;49.736;8.734;2023-08-12T05:41:28;4.63;;;4.30;;
11447;SDS011;43755;49.736;8.734;2023-08-12T05:43:31;5.10;;;4.60;;
11447;SDS011;43755;49.736;8.734;2023-08-12T05:45:33;5.70;;;4.93;;
11447;SDS011;43755;49.736;8.734;2023-08-12T05:47:34;5.03;;;4.47;;
11447;SDS011;43755;49.736;8.734;2023-08-12T05:49:35;5.60;;;4.40;;
11447;SDS011;43755;49.736;8.734;2023-08-12T05:51:37;5.30;;;4.70;;
11447;SDS011;43755;49.736;8.734;2023-08-12T05:53:38;4.90;;;4.50;;
11447;SDS011;43755;49.736;8.734;2023-08-12T05:55:40;5.03;;;4.63;;
11447;SDS011;43755;49.736;8.734;2023-08-12T05:57:41;5.10;;;4.67;;
11447;SDS011;43755;49.736;8.734;2023-08-12T05:59:44;4.60;;;4.30;;
11447;SDS011;43755;49.736;8.734;2023-08-12T06:01:45;5.93;;;4.43;;
11447;SDS011;43755;49.736;8.734;2023-08-12T06:03:47;4.97;;;4.47;;
11447;SDS011;43755;49.736;8.734;2023-08-12T06:05:48;4.70;;;4.30;;
11447;SDS011;43755;49.736;8.734;2023-08-12T06:07:49;7.43;;;4.60;;
11447;SDS011;43755;49.736;8.734;2023-08-12T06:09:51;5.27;;;4.40;;
11447;SDS011;43755;49.736;8.734;2023-08-12T06:11:52;4.77;;;4.37;;
11447;SDS011;43755;49.736;8.734;2023-08-12T06:13:54;4.83;;;4.33;;
11447;SDS011;43755;49.736;8.734;2023-08-12T06:15:56;4.73;;;4.20;;
11447;SDS011;43755;49.736;8.734;2023-08-12T06:17:58;4.93;;;4.47;;
11447;SDS011;43755;49.736;8.734;2023-08-12T06:20:00;6.00;;;4.70;;
11447;SDS011;43755;49.736;8.734;2023-08-12T06:22:01;6.77;;;4.70;;
11447;SDS011;43755;49.736;8.734;2023-08-12T06:24:03;5.03;;;4.63;;
11447;SDS011;43755;49.736;8.734;2023-08-12T06:26:05;7.57;;;4.60;;
11447;SDS011;43755;49.736;8.734;2023-08-12T06:28:06;5.23;;;4.40;;
11447;SDS011;43755;49.736;8.734;2023-08-12T06:30:09;4.70;;;4.30;;
11447;SDS011;43755;49.736;8.734;2023-08-12T06:32:13;4.93;;;4.47;;
11447;SDS011;43755;49.736;8.734;2023-08-12T06:34:14;3.90;;;3.70;;
11447;SDS011;43755;49.736;8.734;2023-08-12T06:36:16;4.63;;;4.00;;
11447;SDS011;43755;49.736;8.734;2023-08-12T06:38:17;4.37;;;3.97;;
11447;SDS011;43755;49.736;8.734;2023-08-12T06:40:18;4.67;;;4.23;;
11447;SDS011;43755;49.736;8.734;2023-08-12T06:42:20;4.27;;;3.93;;
11447;SDS011;43755;49.736;8.734;2023-08-12T06:44:21;11.67;;;4.77;;
11447;SDS011;43755;49.736;8.734;2023-08-12T06:46:23;4.20;;;3.90;;
11447;SDS011;43755;49.736;8.734;2023-08-12T06:48:25;5.20;;;4.00;;
11447;SDS011;43755;49.736;8.734;2023-08-12T06:50:26;4.57;;;4.17;;
11447;SDS011;43755;49.736;8.734;2023-08-12T06:52:27;4.07;;;3.67;;
11447;SDS011;43755;49.736;8.734;2023-08-12T06:54:29;4.50;;;3.80;;
11447;SDS011;43755;49.736;8.734;2023-08-12T06:56:31;4.33;;;3.80;;
11447;SDS011;43755;49.736;8.734;2023-08-12T06:58:32;3.93;;;3.57;;
11447;SDS011;43755;49.736;8.734;2023-08-12T07:00:33;4.03;;;3.73;;
11447;SDS011;43755;49.736;8.734;2023-08-12T07:02:35;3.77;;;3.50;;
11447;SDS011;43755;49.736;8.734;2023-08-12T07:04:37;3.60;;;3.40;;
11447;SDS011;43755;49.736;8.734;2023-08-12T07:06:38;4.60;;;3.43;;
11447;SDS011;43755;49.736;8.734;2023-08-12T07:08:39;3.50;;;3.20;;
11447;SDS011;43755;49.736;8.734;2023-08-12T07:10:41;3.43;;;3.13;;
11447;SDS011;43755;49.736;8.734;2023-08-12T07:12:43;3.33;;;3.03;;
11447;SDS011;43755;49.736;8.734;2023-08-12T07:14:44;3.80;;;3.50;;
11447;SDS011;43755;49.736;8.734;2023-08-12T07:16:45;3.63;;;3.33;;
11447;SDS011;43755;49.736;8.734;2023-08-12T07:18:47;4.10;;;3.33;;
11447;SDS011;43755;49.736;8.734;2023-08-12T07:20:50;3.73;;;3.17;;
11447;SDS011;43755;49.736;8.734;2023-08-12T07:22:51;3.70;;;3.30;;
11447;SDS011;43755;49.736;8.734;2023-08-12T07:24:53;4.17;;;3.10;;
11447;SDS011;43755;49.736;8.734;2023-08-12T07:26:55;3.43;;;3.17;;
11447;SDS011;43755;49.736;8.734;2023-08-12T07:28:56;3.70;;;3.40;;
11447;SDS011;43755;49.736;8.734;2023-08-12T07:31:00;3.10;;;2.90;;
11447;SDS011;43755;49.736;8.734;2023-08-12T07:33:01;3.20;;;3.00;;
11447;SDS011;43755;49.736;8.734;2023-08-12T07:35:03;3.97;;;3.57;;
11447;SDS011;43755;49.736;8.734;2023-08-12T07:37:07;3.70;;;3.40;;
11447;SDS011;43755;49.736;8.734;2023-08-12T07:39:08;3.57;;;3.27;;
11447;SDS011;43755;49.736;8.734;2023-08-12T07:41:10;3.87;;;3.33;;
11447;SDS011;43755;49.736;8.734;2023-08-12T07:43:11;6.67;;;3.40;;
11447;SDS011;43755;49.736;8.734;2023-08-12T07:45:13;3.57;;;3.27;;
11447;SDS011;43755;49.736;8.734;2023-08-12T07:47:14;3.80;;;3.50;;
11447;SDS011;43755;49.736;8.734;2023-08-12T07:49:16;4.20;;;3.37;;
11447;SDS011;43755;49.736;8.734;2023-08-12T07:51:17;3.87;;;3.57;;
11447;SDS011;43755;49.736;8.734;2023-08-12T07:53:20;3.90;;;3.60;;
11447;SDS011;43755;49.736;8.734;2023-08-12T07:55:21;3.97;;;3.27;;
11447;SDS011;43755;49.736;8.734;2023-08-12T07:57:23;4.10;;;3.70;;
11447;SDS011;43755;49.736;8.734;2023-08-12T07:59:24;5.03;;;3.80;;
11447;SDS011;43755;49.736;8.734;2023-08-12T08:01:26;3.83;;;3.53;;
11447;SDS011;43755;49.736;8.734;2023-08-12T08:03:27;3.73;;;3.27;;
11447;SDS011;43755;49.736;8.734;2023-08-12T08:05:29;3.27;;;3.03;;
11447;SDS011;43755;49.736;8.734;2023-08-12T08:07:30;4.53;;;3.90;;
11447;SDS011;43755;49.736;8.734;2023-08-12T08:09:33;6.17;;;3.60;;
11447;SDS011;43755;49.736;8.734;2023-08-12T08:11:34;3.70;;;3.50;;
11447;SDS011;43755;49.736;8.734;2023-08-12T08:13:36;4.93;;;3.93;;
11447;SDS011;43755;49.736;8.734;2023-08-12T08:15:37;4.23;;;3.83;;
11447;SDS011;43755;49.736;8.734;2023-08-12T08:17:38;4.13;;;3.67;;
11447;SDS011;43755;49.736;8.734;2023-08-12T08:19:40;4.83;;;3.83;;
11447;SDS011;43755;49.736;8.734;2023-08-12T08:21:41;3.90;;;3.50;;
11447;SDS011;43755;49.736;8.734;2023-08-12T08:23:43;4.10;;;3.60;;
11447;SDS011;43755;49.736;8.734;2023-08-12T08:25:45;3.70;;;3.40;;
11447;SDS011;43755;49.736;8.734;2023-08-12T08:27:47;3.80;;;3.50;;
11447;SDS011;43755;49.736;8.734;2023-08-12T08:29:48;3.93;;;3.53;;
11447;SDS011;43755;49.736;8.734;2023-08-12T08:31:50;3.53;;;3.30;;
11447;SDS011;43755;49.736;8.734;2023-08-12T08:33:51;4.63;;;3.30;;
11447;SDS011;43755;49.736;8.734;2023-08-12T08:35:53;3.80;;;3.50;;
11447;SDS011;43755;49.736;8.734;2023-08-12T08:37:54;3.33;;;3.13;;
11447;SDS011;43755;49.736;8.734;2023-08-12T08:39:56;3.37;;;3.07;;
11447;SDS011;43755;49.736;8.734;2023-08-12T08:41:58;3.40;;;3.10;;
11447;SDS011;43755;49.736;8.734;2023-08-12T08:44:01;3.67;;;3.37;;
11447;SDS011;43755;49.736;8.734;2023-08-12T08:46:04;3.50;;;3.20;;
11447;SDS011;43755;49.736;8.734;2023-08-12T08:48:07;3.47;;;3.17;;
11447;SDS011;43755;49.736;8.734;2023-08-12T08:50:11;3.40;;;3.20;;
11447;SDS011;43755;49.736;8.734;2023-08-12T08:52:13;3.57;;;3.27;;
11447;SDS011;43755;49.736;8.734;2023-08-12T08:54:15;8.77;;;3.50;;
11447;SDS011;43755;49.736;8.734;2023-08-12T08:56:16;6.53;;;3.73;;
11447;SDS011;43755;49.736;8.734;2023-08-12T08:58:19;3.63;;;3.33;;
11447;SDS011;43755;49.736;8.734;2023-08-12T09:00:20;6.00;;;3.67;;
11447;SDS011;43755;49.736;8.734;2023-08-12T09:02:21;4.13;;;3.67;;
11447;SDS011;43755;49.736;8.734;2023-08-12T09:04:24;6.13;;;3.30;;
11447;SDS011;43755;49.736;8.734;2023-08-12T09:06:28;4.30;;;3.67;;
11447;SDS011;43755;49.736;8.734;2023-08-12T09:08:31;4.33;;;3.93;;
11447;SDS011;43755;49.736;8.734;2023-08-12T09:10:33;4.03;;;3.63;;
11447;SDS011;43755;49.736;8.734;2023-08-12T09:12:37;4.30;;;3.80;;
11447;SDS011;43755;49.736;8.734;2023-08-12T09:14:40;3.90;;;3.60;;
11447;SDS011;43755;49.736;8.734;2023-08-12T09:16:41;3.73;;;3.43;;
11447;SDS011;43755;49.736;8.734;2023-08-12T09:18:43;4.40;;;3.97;;
11447;SDS011;43755;49.736;8.734;2023-08-12T09:20:44;4.17;;;3.77;;
11447;SDS011;43755;49.736;8.734;2023-08-12T09:22:46;7.83;;;3.67;;
11447;SDS011;43755;49.736;8.734;2023-08-12T09:24:56;5.50;;;4.00;;
11447;SDS011;43755;49.736;8.734;2023-08-12T09:26:58;3.80;;;3.50;;
11447;SDS011;43755;49.736;8.734;2023-08-12T09:29:00;5.40;;;4.13;;
11447;SDS011;43755;49.736;8.734;2023-08-12T09:31:03;4.10;;;3.80;;
11447;SDS011;43755;49.736;8.734;2023-08-12T09:33:05;3.73;;;3.47;;
11447;SDS011;43755;49.736;8.734;2023-08-12T09:35:11;4.87;;;3.87;;
11447;SDS011;43755;49.736;8.734;2023-08-12T09:37:16;3.70;;;3.40;;
11447;SDS011;43755;49.736;8.734;2023-08-12T09:39:18;3.77;;;3.47;;
11447;SDS011;43755;49.736;8.734;2023-08-12T09:41:21;3.50;;;3.20;;
11447;SDS011;43755;49.736;8.734;2023-08-12T09:43:23;4.30;;;3.37;;
11447;SDS011;43755;49.736;8.734;2023-08-12T09:45:25;5.03;;;3.33;;
11447;SDS011;43755;49.736;8.734;2023-08-12T09:47:28;4.00;;;3.43;;
11447;SDS011;43755;49.736;8.734;2023-08-12T09:49:29;4.30;;;3.90;;
11447;SDS011;43755;49.736;8.734;2023-08-12T09:51:33;4.00;;;3.57;;
11447;SDS011;43755;49.736;8.734;2023-08-12T09:53:34;4.20;;;3.60;;
11447;SDS011;43755;49.736;8.734;2023-08-12T09:55:36;3.73;;;3.30;;
11447;SDS011;43755;49.736;8.734;2023-08-12T09:57:40;3.80;;;3.43;;
11447;SDS011;43755;49.736;8.734;2023-08-12T09:59:44;3.53;;;3.33;;
11447;SDS011;43755;49.736;8.734;2023-08-12T10:01:47;4.37;;;3.23;;
11447;SDS011;43755;49.736;8.734;2023-08-12T10:03:50;3.60;;;3.20;;
11447;SDS011;43755;49.736;8.734;2023-08-12T10:05:52;4.30;;;3.40;;
11447;SDS011;43755;49.736;8.734;2023-08-12T10:07:54;3.77;;;3.00;;
11447;SDS011;43755;49.736;8.734;2023-08-12T10:09:56;3.93;;;3.53;;
11447;SDS011;43755;49.736;8.734;2023-08-12T10:11:57;3.80;;;3.50;;
11447;SDS011;43755;49.736;8.734;2023-08-12T10:13:59;3.60;;;3.30;;
11447;SDS011;43755;49.736;8.734;2023-08-12T10:16:01;3.70;;;3.23;;
11447;SDS011;43755;49.736;8.734;2023-08-12T10:18:03;3.40;;;3.10;;
11447;SDS011;43755;49.736;8.734;2023-08-12T10:20:08;3.40;;;3.10;;
11447;SDS011;43755;49.736;8.734;2023-08-12T10:22:12;3.70;;;3.40;;
11447;SDS011;43755;49.736;8.734;2023-08-12T10:24:15;4.57;;;3.93;;
11447;SDS011;43755;49.736;8.734;2023-08-12T10:26:17;5.47;;;3.47;;
11447;SDS011;43755;49.736;8.734;2023-08-12T10:28:19;3.97;;;3.63;;
11447;SDS011;43755;49.736;8.734;2023-08-12T10:30:21;8.03;;;4.00;;
11447;SDS011;43755;49.736;8.734;2023-08-12T10:32:22;3.77;;;3.47;;
11447;SDS011;43755;49.736;8.734;2023-08-12T10:34:24;3.73;;;3.40;;
11447;SDS011;43755;49.736;8.734;2023-08-12T10:36:28;3.50;;;3.20;;
11447;SDS011;43755;49.736;8.734;2023-08-12T10:38:29;4.13;;;3.60;;
11447;SDS011;43755;49.736;8.734;2023-08-12T10:40:30;4.53;;;3.80;;
11447;SDS011;43755;49.736;8.734;2023-08-12T10:42:41;4.53;;;3.87;;
11447;SDS011;43755;49.736;8.734;2023-08-12T10:44:49;4.97;;;3.97;;
11447;SDS011;43755;49.736;8.734;2023-08-12T10:46:52;4.90;;;4.50;;
11447;SDS011;43755;49.736;8.734;2023-08-12T10:48:58;5.37;;;4.70;;
11447;SDS011;43755;49.736;8.734;2023-08-12T10:51:02;5.20;;;4.80;;
11447;SDS011;43755;49.736;8.734;2023-08-12T10:53:20;4.93;;;4.53;;
11447;SDS011;43755;49.736;8.734;2023-08-12T10:55:23;4.43;;;4.03;;
11447;SDS011;43755;49.736;8.734;2023-08-12T10:57:34;4.80;;;4.40;;
11447;SDS011;43755;49.736;8.734;2023-08-12T10:59:46;4.90;;;4.50;;
11447;SDS011;43755;49.736;8.734;2023-08-12T11:01:48;5.00;;;4.50;;
11447;SDS011;43755;49.736;8.734;2023-08-12T11:03:50;5.93;;;4.17;;
11447;SDS011;43755;49.736;8.734;2023-08-12T11:05:52;4.30;;;3.90;;
11447;SDS011;43755;49.736;8.734;2023-08-12T11:07:56;4.80;;;4.03;;
11447;SDS011;43755;49.736;8.734;2023-08-12T11:10:05;4.40;;;4.00;;
11447;SDS011;43755;49.736;8.734;2023-08-12T11:12:16;3.93;;;3.63;;
11447;SDS011;43755;49.736;8.734;2023-08-12T11:14:17;4.87;;;3.67;;
11447;SDS011;43755;49.736;8.734;2023-08-12T11:16:19;4.23;;;3.83;;
11447;SDS011;43755;49.736;8.734;2023-08-12T11:18:32;8.97;;;5.67;;
11447;SDS011;43755;49.736;8.734;2023-08-12T11:20:33;8.90;;;5.30;;
11447;SDS011;43755;49.736;8.734;2023-08-12T11:22:36;11.63;;;6.30;;
11447;SDS011;43755;49.736;8.734;2023-08-12T11:24:40;9.40;;;5.87;;
11447;SDS011;43755;49.736;8.734;2023-08-12T11:26:42;7.63;;;3.87;;
11447;SDS011;43755;49.736;8.734;2023-08-12T11:28:46;4.93;;;2.93;;
11447;SDS011;43755;49.736;8.734;2023-08-12T11:30:48;9.47;;;3.67;;
11447;SDS011;43755;49.736;8.734;2023-08-12T11:32:49;7.67;;;3.23;;
11447;SDS011;43755;49.736;8.734;2023-08-12T11:34:52;7.10;;;3.07;;
11447;SDS011;43755;49.736;8.734;2023-08-12T11:36:52;3.03;;;2.67;;
11447;SDS011;43755;49.736;8.734;2023-08-12T11:38:54;3.27;;;2.80;;
11447;SDS011;43755;49.736;8.734;2023-08-12T11:40:55;2.30;;;1.90;;
11447;SDS011;43755;49.736;8.734;2023-08-12T11:42:58;2.47;;;2.00;;
11447;SDS011;43755;49.736;8.734;2023-08-12T11:44:59;4.43;;;1.87;;
11447;SDS011;43755;49.736;8.734;2023-08-12T11:47:00;4.23;;;2.40;;
11447;SDS011;43755;49.736;8.734;2023-08-12T11:49:01;4.83;;;2.30;;
11447;SDS011;43755;49.736;8.734;2023-08-12T11:51:03;4.60;;;2.80;;
11447;SDS011;43755;49.736;8.734;2023-08-12T11:53:04;5.10;;;2.60;;
11447;SDS011;43755;49.736;8.734;2023-08-12T11:55:06;5.80;;;2.90;;
11447;SDS011;43755;49.736;8.734;2023-08-12T11:57:08;5.20;;;2.63;;
11447;SDS011;43755;49.736;8.734;2023-08-12T11:59:10;2.23;;;2.03;;
11447;SDS011;43755;49.736;8.734;2023-08-12T12:01:12;2.70;;;2.00;;
11447;SDS011;43755;49.736;8.734;2023-08-12T12:03:13;2.20;;;2.00;;
11447;SDS011;43755;49.736;8.734;2023-08-12T12:05:18;2.90;;;2.10;;
11447;SDS011;43755;49.736;8.734;2023-08-12T12:07:20;3.80;;;2.13;;
11447;SDS011;43755;49.736;8.734;2023-08-12T12:09:24;2.20;;;2.00;;
11447;SDS011;43755;49.736;8.734;2023-08-12T12:11:26;2.73;;;2.30;;
11447;SDS011;43755;49.736;8.734;2023-08-12T12:13:27;2.27;;;2.07;;
11447;SDS011;43755;49.736;8.734;2023-08-12T12:15:37;2.97;;;2.00;;
11447;SDS011;43755;49.736;8.734;2023-08-12T12:17:39;2.40;;;2.00;;